Time;durP1;ratioP1;P1;durP2;ratioP2;P2;SDS_P1;SDS_P2;PMS_P1;PMS_P2;Temp;Humidity;BMP_temperature;BMP_pressure;BME280_temperature;BME280_humidity;BME280_pressure;Samples;Min_cycle;Max_cycle;Signal;HPM_P1;HPM_P2
2023/08/12 00:01:25;;;;;;;18.17;3.40;;;;;;;16.08;100.00;99519.34;5029314;28;20065;-84
2023/08/12 00:03:51;;;;;;;14.25;2.55;;;;;;;16.11;100.00;99510.94;5031924;28;20043;-84
2023/08/12 00:06:17;;;;;;;19.17;3.28;;;;;;;16.11;100.00;99513.63;5013212;28;20436;-85
2023/08/12 00:08:43;;;;;;;14.43;2.53;;;;;;;16.04;100.00;99513.59;5017196;28;20041;-84
2023/08/12 00:11:09;;;;;;;17.35;2.92;;;;;;;16.06;100.00;99516.06;5013704;28;20034;-84
2023/08/12 00:13:34;;;;;;;19.80;2.88;;;;;;;16.05;100.00;99507.25;5039408;28;20443;-84
2023/08/12 00:16:00;;;;;;;19.70;3.58;;;;;;;15.99;100.00;99503.56;5020222;28;20036;-84
2023/08/12 00:18:26;;;;;;;13.70;3.00;;;;;;;15.98;100.00;99504.59;5027699;28;20535;-84
2023/08/12 00:20:52;;;;;;;18.45;3.50;;;;;;;15.99;100.00;99502.72;5033313;28;20071;-84
2023/08/12 00:23:18;;;;;;;24.58;3.42;;;;;;;15.97;100.00;99494.94;5017185;28;20078;-82
2023/08/12 00:25:44;;;;;;;20.58;3.20;;;;;;;15.98;100.00;99493.94;5034725;28;20029;-82
2023/08/12 00:28:10;;;;;;;21.80;2.97;;;;;;;15.98;100.00;99488.59;5035186;28;20033;-83
2023/08/12 00:30:36;;;;;;;18.45;2.88;;;;;;;15.97;100.00;99486.94;5027904;28;20392;-84
2023/08/12 00:33:02;;;;;;;14.82;3.05;;;;;;;15.94;100.00;99491.84;5032014;28;20376;-85
2023/08/12 00:35:28;;;;;;;15.27;2.92;;;;;;;15.93;100.00;99488.34;5028191;28;20025;-84
2023/08/12 00:37:54;;;;;;;16.73;3.13;;;;;;;15.93;100.00;99487.50;5034623;28;20494;-84
2023/08/12 00:40:19;;;;;;;16.30;2.00;;;;;;;15.95;100.00;99474.81;5031146;28;20028;-84
2023/08/12 00:42:46;;;;;;;15.02;3.15;;;;;;;15.94;100.00;99481.19;5015483;28;20037;-84
2023/08/12 00:45:12;;;;;;;16.80;2.90;;;;;;;15.88;100.00;99469.47;5011383;28;20087;-84
2023/08/12 00:47:39;;;;;;;14.02;2.35;;;;;;;15.89;100.00;99465.81;5034210;28;20036;-84
2023/08/12 00:50:08;;;;;;;17.52;3.10;;;;;;;15.87;100.00;99466.00;5028563;28;20059;-84
2023/08/12 00:52:34;;;;;;;12.00;2.35;;;;;;;15.88;100.00;99464.16;5010800;28;20069;-84
2023/08/12 00:55:00;;;;;;;12.73;2.45;;;;;;;15.84;100.00;99458.44;5033339;28;20036;-85
2023/08/12 00:57:26;;;;;;;11.43;2.17;;;;;;;15.87;100.00;99460.69;5021456;28;20033;-84
2023/08/12 00:59:54;;;;;;;14.88;2.22;;;;;;;15.89;100.00;99465.81;5014560;28;20094;-84
2023/08/12 01:02:20;;;;;;;18.55;2.67;;;;;;;15.85;100.00;99456.56;5012578;28;20069;-84
2023/08/12 01:04:46;;;;;;;12.27;2.13;;;;;;;15.85;100.00;99452.06;5007875;28;20040;-83
2023/08/12 01:07:12;;;;;;;9.85;1.92;;;;;;;15.87;100.00;99435.88;5030126;28;20033;-83
2023/08/12 01:09:38;;;;;;;10.63;2.28;;;;;;;15.89;100.00;99444.50;5026226;28;20042;-83
2023/08/12 01:12:13;;;;;;;14.63;2.42;;;;;;;15.89;100.00;99444.50;5010059;28;20033;-83
2023/08/12 01:14:56;;;;;;;13.48;1.90;;;;;;;15.87;100.00;99431.38;5008040;28;20037;-83
2023/08/12 01:17:22;;;;;;;12.77;2.38;;;;;;;15.86;100.00;99434.25;5031866;28;20035;-83
2023/08/12 01:19:50;;;;;;;15.40;2.05;;;;;;;15.86;100.00;99421.72;5024773;28;20581;-84
2023/08/12 01:22:20;;;;;;;17.25;2.45;;;;;;;15.83;100.00;99419.47;5019700;28;20049;-83
2023/08/12 01:24:46;;;;;;;15.48;2.35;;;;;;;15.79;100.00;99423.56;5020413;28;20037;-84
2023/08/12 01:27:13;;;;;;;10.05;1.75;;;;;;;15.82;100.00;99411.66;5024462;28;20037;-84
2023/08/12 01:29:49;;;;;;;15.70;1.85;;;;;;;15.84;100.00;99417.63;5030243;28;20087;-83
2023/08/12 01:32:21;;;;;;;11.00;1.70;;;;;;;15.83;100.00;99424.78;5013575;28;20046;-84
2023/08/12 01:35:28;;;;;;;19.55;2.97;;;;;;;15.82;100.00;99414.34;5030724;28;20048;-84
2023/08/12 01:37:56;;;;;;;8.13;2.03;;;;;;;15.79;100.00;99417.41;4982050;28;20049;-84
2023/08/12 01:40:23;;;;;;;7.70;1.38;;;;;;;15.78;100.00;99407.78;5010452;28;20037;-83
2023/08/12 01:42:50;;;;;;;9.13;1.45;;;;;;;15.73;100.00;99411.06;5020111;28;20549;-84
2023/08/12 01:45:18;;;;;;;5.93;1.60;;;;;;;15.72;100.00;99412.91;5011992;28;20115;-84
2023/08/12 01:47:46;;;;;;;9.52;1.90;;;;;;;15.68;100.00;99417.00;5029854;28;20091;-83
2023/08/12 01:50:11;;;;;;;8.75;1.27;;;;;;;15.69;100.00;99407.16;5005827;28;20061;-84
2023/08/12 01:52:38;;;;;;;5.85;1.13;;;;;;;15.66;100.00;99408.38;5015959;28;20041;-83
2023/08/12 01:55:04;;;;;;;7.03;1.50;;;;;;;15.67;100.00;99414.53;5029398;28;20087;-84
2023/08/12 01:57:30;;;;;;;9.15;1.00;;;;;;;15.66;100.00;99397.75;5028743;28;20031;-84
2023/08/12 01:59:55;;;;;;;7.40;1.25;;;;;;;15.67;100.00;99407.34;5010055;28;20041;-84
2023/08/12 02:02:22;;;;;;;5.65;1.27;;;;;;;15.68;100.00;99411.69;5021090;28;20033;-83
2023/08/12 02:04:48;;;;;;;8.13;1.73;;;;;;;15.69;100.00;99407.97;5023440;28;20479;-84
2023/08/12 02:07:14;;;;;;;10.40;1.42;;;;;;;15.73;100.00;99406.56;5020434;28;20053;-84
2023/08/12 02:09:40;;;;;;;7.07;1.10;;;;;;;15.75;100.00;99403.69;5020653;28;20827;-83
2023/08/12 02:12:06;;;;;;;10.25;1.30;;;;;;;15.79;100.00;99399.59;5013389;28;20030;-84
2023/08/12 02:14:32;;;;;;;7.07;1.17;;;;;;;15.78;100.00;99389.13;5028360;28;20053;-83
2023/08/12 02:16:58;;;;;;;8.05;1.10;;;;;;;15.79;100.00;99398.75;5011456;28;20419;-84
2023/08/12 02:19:24;;;;;;;9.95;1.33;;;;;;;15.77;100.00;99398.97;5028983;28;20068;-84
2023/08/12 02:21:50;;;;;;;8.50;1.17;;;;;;;15.79;100.00;99401.44;5030574;28;20060;-84
2023/08/12 02:24:16;;;;;;;9.23;1.00;;;;;;;15.75;100.00;99399.16;4995954;28;20029;-84
2023/08/12 02:26:41;;;;;;;3.50;0.90;;;;;;;15.77;100.00;99401.63;5011362;28;20038;-83
2023/08/12 02:29:07;;;;;;;7.97;1.15;;;;;;;15.78;100.00;99399.78;5031070;28;20040;-83
2023/08/12 02:31:33;;;;;;;8.10;1.10;;;;;;;15.77;100.00;99393.63;5019430;28;20525;-83
2023/08/12 02:33:59;;;;;;;5.43;1.00;;;;;;;15.75;100.00;99391.19;5009495;28;20396;-83
2023/08/12 02:36:26;;;;;;;8.82;1.02;;;;;;;15.73;100.00;99382.59;4997159;28;20041;-83
2023/08/12 02:38:55;;;;;;;8.00;1.27;;;;;;;15.73;100.00;99376.44;5026822;28;20375;-82
2023/08/12 02:41:21;;;;;;;9.10;1.13;;;;;;;15.74;100.00;99378.06;5016256;28;20029;-82
2023/08/12 02:43:47;;;;;;;6.45;0.90;;;;;;;15.72;100.00;99385.44;5022228;28;20053;-84
2023/08/12 02:46:15;;;;;;;3.95;0.77;;;;;;;15.73;100.00;99377.28;5006545;28;20519;-83
2023/08/12 02:48:41;;;;;;;5.55;0.88;;;;;;;15.76;100.00;99373.38;5011706;28;20690;-84
2023/08/12 02:51:07;;;;;;;3.88;1.02;;;;;;;15.75;100.00;99361.88;5010689;28;20492;-83
2023/08/12 02:53:33;;;;;;;6.68;1.38;;;;;;;15.74;100.00;99373.56;5024834;28;20041;-84
2023/08/12 02:55:59;;;;;;;6.28;1.15;;;;;;;15.73;100.00;99373.78;5018771;28;20391;-84
2023/08/12 02:58:25;;;;;;;5.68;1.25;;;;;;;15.72;100.00;99372.13;5023154;28;20029;-82
2023/08/12 03:00:51;;;;;;;8.40;1.15;;;;;;;15.75;100.00;99379.72;4993949;28;20566;-81
2023/08/12 03:03:17;;;;;;;7.45;1.23;;;;;;;15.74;100.00;99376.22;5010877;28;20030;-83
2023/08/12 03:05:46;;;;;;;6.05;0.93;;;;;;;15.79;100.00;99369.44;5021353;28;20041;-82
2023/08/12 03:08:12;;;;;;;6.28;1.00;;;;;;;15.79;100.00;99369.44;5004426;28;20112;-81
2023/08/12 03:10:38;;;;;;;6.93;0.98;;;;;;;15.77;100.00;99364.34;5024249;28;20167;-81
2023/08/12 03:13:04;;;;;;;7.80;1.88;;;;;;;15.80;100.00;99360.47;5022585;28;20038;-82
2023/08/12 03:15:30;;;;;;;5.47;1.27;;;;;;;15.81;100.00;99357.59;5009032;28;20064;-81
2023/08/12 03:17:57;;;;;;;11.85;1.70;;;;;;;15.81;100.00;99359.44;5005713;28;20104;-82
2023/08/12 03:20:23;;;;;;;9.52;1.35;;;;;;;15.81;100.00;99354.09;5011544;28;20033;-82
2023/08/12 03:22:49;;;;;;;6.55;1.27;;;;;;;15.83;100.00;99352.06;5024004;28;20033;-82
2023/08/12 03:25:16;;;;;;;12.18;1.33;;;;;;;15.78;100.00;99352.66;5008035;28;20037;-82
2023/08/12 03:27:43;;;;;;;6.25;1.17;;;;;;;15.78;100.00;99342.00;5002829;28;20112;-82
2023/08/12 03:30:10;;;;;;;7.60;2.25;;;;;;;15.82;100.00;99347.72;5003198;28;20105;-82
2023/08/12 03:32:36;;;;;;;6.25;1.02;;;;;;;15.79;100.00;99342.81;4998114;28;20080;-82
2023/08/12 03:35:01;;;;;;;12.48;2.10;;;;;;;15.80;100.00;99347.13;5012361;28;20036;-82
2023/08/12 03:37:27;;;;;;;6.78;1.35;;;;;;;15.78;100.00;99336.69;5025675;28;20054;-82
2023/08/12 03:39:55;;;;;;;10.15;1.40;;;;;;;15.79;100.00;99342.81;5027089;28;20029;-81
2023/08/12 03:42:21;;;;;;;11.90;1.75;;;;;;;15.80;100.00;99339.16;5022967;28;20076;-82
2023/08/12 03:44:47;;;;;;;10.00;1.30;;;;;;;15.79;100.00;99340.16;5010343;28;20044;-83
2023/08/12 03:47:13;;;;;;;7.13;0.98;;;;;;;15.77;100.00;99329.69;5005311;28;20037;-83
2023/08/12 03:49:40;;;;;;;10.35;1.63;;;;;;;15.79;100.00;99324.16;5008545;28;20124;-82
2023/08/12 03:52:07;;;;;;;6.25;1.40;;;;;;;15.76;100.00;99325.41;5006908;28;20030;-83
2023/08/12 03:54:33;;;;;;;13.70;1.83;;;;;;;15.72;100.00;99324.16;5019754;28;20064;-83
2023/08/12 03:57:00;;;;;;;8.57;1.88;;;;;;;15.72;100.00;99322.31;4997366;28;20358;-83
2023/08/12 03:59:27;;;;;;;9.00;1.75;;;;;;;15.72;100.00;99322.31;5016364;28;20274;-82
2023/08/12 04:01:52;;;;;;;6.28;1.40;;;;;;;15.73;100.00;99318.66;5025530;28;20069;-82
2023/08/12 04:04:18;;;;;;;19.40;1.98;;;;;;;15.71;100.00;99314.53;5006807;28;21186;-83
2023/08/12 04:06:44;;;;;;;7.40;1.30;;;;;;;15.73;100.00;99323.16;5008901;28;20096;-82
2023/08/12 04:09:10;;;;;;;6.00;1.52;;;;;;;15.71;100.00;99315.38;5007330;28;20048;-81
2023/08/12 04:11:36;;;;;;;14.15;2.05;;;;;;;15.73;100.00;99312.50;5000984;28;20040;-81
2023/08/12 04:14:01;;;;;;;10.63;1.63;;;;;;;15.72;100.00;99319.66;5025709;28;20037;-82
2023/08/12 04:16:27;;;;;;;8.95;1.80;;;;;;;15.71;100.00;99320.69;5011730;28;20071;-83
2023/08/12 04:18:53;;;;;;;9.70;1.73;;;;;;;15.72;100.00;99316.16;5012836;28;20074;-82
2023/08/12 04:21:19;;;;;;;5.30;1.40;;;;;;;15.72;100.00;99317.00;4996159;28;20045;-83
2023/08/12 04:23:45;;;;;;;11.07;2.05;;;;;;;15.74;100.00;99316.78;5021875;28;20041;-83
2023/08/12 04:26:11;;;;;;;13.32;1.30;;;;;;;15.73;100.00;99307.19;5014289;28;20033;-83
2023/08/12 04:28:37;;;;;;;6.53;0.95;;;;;;;15.74;100.00;99309.63;5031513;28;20046;-83
2023/08/12 04:31:07;;;;;;;6.07;1.30;;;;;;;15.74;100.00;99317.63;5023270;28;20030;-83
2023/08/12 04:33:34;;;;;;;8.60;1.20;;;;;;;15.73;100.00;99317.84;5028536;28;20045;-83
2023/08/12 04:35:59;;;;;;;6.38;1.45;;;;;;;15.72;100.00;99313.50;5028882;28;20025;-83
2023/08/12 04:38:26;;;;;;;6.93;1.92;;;;;;;15.72;100.00;99318.84;4995187;28;20484;-83
2023/08/12 04:40:55;;;;;;;9.32;1.75;;;;;;;15.71;100.00;99315.38;5009380;28;20033;-83
2023/08/12 04:43:21;;;;;;;8.00;1.60;;;;;;;15.70;100.00;99319.03;5025442;28;20103;-83
2023/08/12 04:45:47;;;;;;;10.95;1.55;;;;;;;15.65;100.00;99320.69;5005408;28;20455;-83
2023/08/12 04:48:14;;;;;;;9.95;2.25;;;;;;;15.63;100.00;99318.25;5026494;28;20100;-83
2023/08/12 04:50:44;;;;;;;6.47;1.60;;;;;;;15.65;100.00;99315.38;5003138;28;20483;-83
2023/08/12 04:53:10;;;;;;;11.77;1.38;;;;;;;15.62;100.00;99324.59;5021175;28;20502;-83
2023/08/12 04:55:36;;;;;;;5.20;1.17;;;;;;;15.59;100.00;99317.03;5009640;28;20033;-83
2023/08/12 04:58:02;;;;;;;8.68;1.48;;;;;;;15.59;100.00;99317.03;5006230;28;20038;-83
2023/08/12 05:00:29;;;;;;;5.88;0.75;;;;;;;15.60;100.00;99318.66;5028024;28;20033;-83
2023/08/12 05:02:56;;;;;;;11.95;1.20;;;;;;;15.59;100.00;99322.34;4992201;28;20033;-83
2023/08/12 05:05:23;;;;;;;4.47;1.25;;;;;;;15.59;100.00;99330.34;4996374;28;20096;-83
2023/08/12 05:07:49;;;;;;;9.23;1.08;;;;;;;15.61;100.00;99336.25;4999340;28;20442;-83
2023/08/12 05:10:17;;;;;;;7.78;1.13;;;;;;;15.57;100.00;99335.88;5003536;28;20037;-83
2023/08/12 05:12:43;;;;;;;9.25;1.52;;;;;;;15.58;100.00;99334.00;5023200;28;20029;-83
2023/08/12 05:15:11;;;;;;;7.30;1.40;;;;;;;15.58;100.00;99336.66;5018861;28;20486;-83
2023/08/12 05:17:37;;;;;;;7.32;1.60;;;;;;;15.56;100.00;99328.09;5011596;28;20556;-82
2023/08/12 05:20:04;;;;;;;11.82;1.30;;;;;;;15.56;100.00;99342.19;5027365;28;20032;-83
2023/08/12 05:22:31;;;;;;;5.00;1.02;;;;;;;15.53;100.00;99336.50;5031088;28;20043;-83
2023/08/12 05:24:57;;;;;;;8.23;1.20;;;;;;;15.54;100.00;99340.78;5030421;28;20037;-83
2023/08/12 05:27:23;;;;;;;8.20;1.20;;;;;;;15.54;100.00;99346.09;5014023;28;20025;-83
2023/08/12 05:29:49;;;;;;;6.55;1.13;;;;;;;15.57;100.00;99343.03;5043370;28;20104;-82
2023/08/12 05:32:14;;;;;;;7.22;1.25;;;;;;;15.52;100.00;99340.16;5014001;28;20032;-82
2023/08/12 05:34:40;;;;;;;5.57;1.13;;;;;;;15.49;100.00;99344.88;5012202;28;20033;-83
2023/08/12 05:37:06;;;;;;;7.60;1.63;;;;;;;15.49;100.00;99347.53;5011945;28;20032;-83
2023/08/12 05:39:32;;;;;;;9.32;1.95;;;;;;;15.48;100.00;99337.09;5037746;28;20056;-83
2023/08/12 05:41:57;;;;;;;8.23;1.45;;;;;;;15.50;100.00;99343.03;5029984;28;20048;-83
2023/08/12 05:44:23;;;;;;;8.68;1.23;;;;;;;15.50;100.00;99345.69;5025889;28;20061;-83
2023/08/12 05:46:49;;;;;;;5.30;1.48;;;;;;;15.47;100.00;99344.25;5043643;28;20487;-82
2023/08/12 05:49:15;;;;;;;8.18;1.33;;;;;;;15.49;100.00;99338.72;5034674;28;20037;-82
2023/08/12 05:51:41;;;;;;;8.35;1.85;;;;;;;15.49;100.00;99344.88;5043416;28;20434;-82
2023/08/12 05:54:07;;;;;;;6.38;1.02;;;;;;;15.50;100.00;99356.34;5043879;28;20025;-82
2023/08/12 05:56:33;;;;;;;9.02;1.58;;;;;;;15.46;100.00;99347.13;5043588;28;20037;-82
2023/08/12 05:58:59;;;;;;;8.95;1.45;;;;;;;15.46;100.00;99352.44;5033525;28;20037;-81
2023/08/12 06:01:25;;;;;;;9.52;1.20;;;;;;;15.48;100.00;99353.06;5047947;28;20120;-83
2023/08/12 06:03:50;;;;;;;10.55;1.80;;;;;;;15.49;100.00;99352.88;5041275;28;20032;-82
2023/08/12 06:06:16;;;;;;;6.07;1.45;;;;;;;15.50;100.00;99354.50;4996424;28;20037;-83
2023/08/12 06:08:43;;;;;;;8.18;1.10;;;;;;;15.53;100.00;99355.94;5046379;28;20032;-81
2023/08/12 06:11:08;;;;;;;7.68;1.70;;;;;;;15.53;100.00;99355.13;5025690;28;20159;-82
2023/08/12 06:13:34;;;;;;;8.05;1.52;;;;;;;15.57;100.00;99359.00;5030977;28;20529;-82
2023/08/12 06:16:01;;;;;;;5.78;1.10;;;;;;;15.56;100.00;99355.53;5011744;28;20037;-82
2023/08/12 06:18:27;;;;;;;4.88;1.23;;;;;;;15.58;100.00;99352.66;5042165;28;20043;-82
2023/08/12 06:20:52;;;;;;;6.32;0.75;;;;;;;15.58;100.00;99364.13;5045108;28;20036;-82
2023/08/12 06:23:18;;;;;;;6.65;0.75;;;;;;;15.59;100.00;99362.31;5050294;28;20106;-81
2023/08/12 06:25:44;;;;;;;6.13;1.23;;;;;;;15.60;100.00;99359.44;5027055;28;20033;-81
2023/08/12 06:28:10;;;;;;;3.88;0.82;;;;;;;15.58;100.00;99360.63;5022294;28;20675;-81
2023/08/12 06:30:36;;;;;;;2.72;0.80;;;;;;;15.67;100.00;99366.59;5013800;28;20045;-80
2023/08/12 06:33:02;;;;;;;3.90;0.70;;;;;;;15.68;100.00;99371.72;5027214;28;20041;-81
2023/08/12 06:35:28;;;;;;;3.38;0.60;;;;;;;15.73;100.00;99368.44;5035017;28;20033;-82
2023/08/12 06:37:54;;;;;;;2.45;0.60;;;;;;;15.73;100.00;99366.59;5028430;28;20033;-82
2023/08/12 06:40:20;;;;;;;1.20;0.30;;;;;;;15.73;100.00;99373.78;5015633;28;20022;-82
2023/08/12 06:42:46;;;;;;;4.03;0.50;;;;;;;15.75;100.00;99375.19;5038637;28;20041;-81
2023/08/12 06:45:12;;;;;;;1.42;0.20;;;;;;;15.74;100.00;99388.72;5042962;28;20033;-82
2023/08/12 06:47:38;;;;;;;1.70;0.20;;;;;;;15.66;100.00;99381.75;5031525;28;20028;-82
2023/08/12 06:50:04;;;;;;;1.15;0.10;;;;;;;15.61;100.00;99382.38;5046521;28;20025;-82
2023/08/12 06:52:29;;;;;;;1.27;0.20;;;;;;;15.47;100.00;99386.88;5012512;28;20184;-82
2023/08/12 06:54:55;;;;;;;0.98;0.20;;;;;;;15.40;100.00;99387.88;5014496;28;20487;-82
2023/08/12 06:57:21;;;;;;;2.50;0.30;;;;;;;15.35;100.00;99385.81;5031337;28;20029;-82
2023/08/12 06:59:47;;;;;;;0.65;0.30;;;;;;;15.35;100.00;99377.84;5002342;28;20056;-81
2023/08/12 07:02:12;;;;;;;1.38;0.30;;;;;;;15.31;100.00;99380.06;5037906;28;20483;-81
2023/08/12 07:04:38;;;;;;;2.03;0.20;;;;;;;15.34;100.00;99386.84;5023519;28;20037;-82
2023/08/12 07:07:04;;;;;;;0.28;0.17;;;;;;;15.33;100.00;99383.38;5030736;28;20037;-82
2023/08/12 07:09:30;;;;;;;1.23;0.10;;;;;;;15.35;100.00;99383.16;5006190;28;20060;-82
2023/08/12 07:11:56;;;;;;;1.38;0.20;;;;;;;15.41;100.00;99390.34;4995480;28;20041;-82
2023/08/12 07:14:22;;;;;;;2.70;0.30;;;;;;;15.48;100.00;99390.34;4999464;28;20516;-82
2023/08/12 07:16:47;;;;;;;2.00;0.38;;;;;;;15.54;100.00;99388.72;5022806;28;20140;-82
2023/08/12 07:19:14;;;;;;;4.25;0.40;;;;;;;15.58;100.00;99393.44;5031729;28;20060;-82
2023/08/12 07:21:40;;;;;;;0.75;0.20;;;;;;;15.65;100.00;99396.09;5044476;28;20043;-82
2023/08/12 07:24:06;;;;;;;2.95;0.30;;;;;;;15.71;100.00;99395.28;5038888;28;20028;-82
2023/08/12 07:26:32;;;;;;;1.20;0.38;;;;;;;15.72;100.00;99396.09;5025259;28;20029;-82
2023/08/12 07:28:57;;;;;;;1.85;0.25;;;;;;;15.86;100.00;99392.41;5026781;28;20052;-82
2023/08/12 07:31:23;;;;;;;3.97;0.35;;;;;;;16.07;100.00;99401.25;5014592;28;20033;-82
2023/08/12 07:33:49;;;;;;;1.33;0.20;;;;;;;16.31;100.00;99393.63;5048573;28;20032;-82
2023/08/12 07:36:15;;;;;;;1.42;0.30;;;;;;;16.53;100.00;99398.69;5048941;28;20517;-82
2023/08/12 07:38:41;;;;;;;2.90;0.50;;;;;;;16.75;100.00;99395.78;5010635;28;20047;-82
2023/08/12 07:41:07;;;;;;;1.02;0.13;;;;;;;17.00;100.00;99395.03;5044897;28;20037;-82
2023/08/12 07:43:33;;;;;;;2.17;0.30;;;;;;;17.18;100.00;99402.38;5014512;28;20040;-82
2023/08/12 07:45:58;;;;;;;1.75;0.20;;;;;;;17.34;100.00;99400.22;5051397;28;20030;-82
2023/08/12 07:48:24;;;;;;;0.90;0.25;;;;;;;17.35;100.00;99401.84;4996714;28;20033;-82
2023/08/12 07:50:59;;;;;;;1.45;0.20;;;;;;;17.40;100.00;99395.88;5014590;28;20045;-82
2023/08/12 07:53:26;;;;;;;1.90;0.20;;;;;;;17.30;100.00;99393.66;5027778;28;20148;-82
2023/08/12 07:55:51;;;;;;;1.02;0.30;;;;;;;17.26;100.00;99406.66;5016996;28;20573;-82
2023/08/12 07:58:17;;;;;;;3.15;0.43;;;;;;;17.13;100.00;99398.69;5034201;28;20028;-81
2023/08/12 08:00:43;;;;;;;2.55;0.52;;;;;;;17.07;100.00;99401.16;5010090;28;20108;-83
2023/08/12 08:03:09;;;;;;;1.48;0.30;;;;;;;17.13;100.00;99398.69;5018373;28;20032;-82
2023/08/12 08:05:35;;;;;;;1.83;0.40;;;;;;;17.08;100.00;99404.69;4987631;28;20563;-82
2023/08/12 08:08:01;;;;;;;1.98;0.30;;;;;;;16.98;100.00;99410.44;5024550;28;20033;-82
2023/08/12 08:10:26;;;;;;;2.15;0.40;;;;;;;16.90;100.00;99410.69;5027477;28;20044;-82
2023/08/12 08:12:53;;;;;;;2.63;0.40;;;;;;;16.79;100.00;99404.16;5051643;28;20037;-82
2023/08/12 08:15:18;;;;;;;2.30;0.50;;;;;;;16.70;100.00;99401.75;5000054;28;20391;-82
2023/08/12 08:17:44;;;;;;;3.85;0.43;;;;;;;16.66;100.00;99403.16;5030127;28;20048;-82
2023/08/12 08:20:10;;;;;;;1.85;0.30;;;;;;;16.59;100.00;99405.88;5038849;28;20037;-82
2023/08/12 08:22:36;;;;;;;4.50;0.40;;;;;;;16.57;100.00;99399.94;5006624;28;20064;-82
2023/08/12 08:25:03;;;;;;;4.40;0.68;;;;;;;16.56;100.00;99402.81;5032246;28;20086;-82
2023/08/12 08:27:29;;;;;;;4.47;0.70;;;;;;;16.49;100.00;99410.81;5030284;28;20036;-82
2023/08/12 08:29:55;;;;;;;7.35;0.65;;;;;;;16.46;100.00;99405.91;5032481;28;20029;-82
2023/08/12 08:32:21;;;;;;;4.50;0.65;;;;;;;16.44;100.00;99418.63;5049346;28;20040;-82
2023/08/12 08:34:46;;;;;;;3.78;0.68;;;;;;;16.45;100.00;99410.41;5028143;28;20403;-82
2023/08/12 08:37:12;;;;;;;5.72;0.68;;;;;;;16.46;100.00;99416.56;5045421;28;20033;-82
2023/08/12 08:39:38;;;;;;;1.63;0.50;;;;;;;16.47;100.00;99420.88;5030865;28;20037;-82
2023/08/12 08:42:06;;;;;;;7.82;0.85;;;;;;;16.52;100.00;99410.41;5021487;28;20161;-82
2023/08/12 08:44:33;;;;;;;1.70;0.68;;;;;;;16.55;100.00;99414.47;5031666;28;20044;-82
2023/08/12 08:47:00;;;;;;;2.92;0.55;;;;;;;16.57;100.00;99413.25;5006882;28;20040;-83
2023/08/12 08:49:28;;;;;;;3.60;0.90;;;;;;;16.62;100.00;99409.97;4969191;28;20049;-82
2023/08/12 08:51:54;;;;;;;5.60;0.80;;;;;;;16.66;100.00;99411.16;5034517;28;20029;-82
2023/08/12 08:54:20;;;;;;;6.70;0.85;;;;;;;16.72;100.00;99410.34;5014512;28;20478;-81
2023/08/12 08:56:49;;;;;;;3.25;0.57;;;;;;;16.80;100.00;99405.81;5008328;28;20451;-81
2023/08/12 08:59:15;;;;;;;6.90;1.48;;;;;;;16.84;100.00;99413.19;5015658;28;20033;-83
2023/08/12 09:01:44;;;;;;;5.93;0.80;;;;;;;16.97;100.00;99406.97;5051753;28;20052;-82
2023/08/12 09:04:10;;;;;;;4.35;0.98;;;;;;;17.08;100.00;99416.19;4999050;28;20044;-82
2023/08/12 09:06:38;;;;;;;8.48;1.30;;;;;;;17.13;100.00;99412.88;5017721;28;20051;-83
2023/08/12 09:09:10;;;;;;;5.50;0.82;;;;;;;17.18;100.00;99415.72;5021752;28;20454;-83
2023/08/12 09:11:41;;;;;;;5.50;1.17;;;;;;;17.22;100.00;99414.25;5018231;28;20040;-83
2023/08/12 09:14:07;;;;;;;4.60;0.80;;;;;;;17.21;100.00;99419.81;5049761;28;20057;-82
2023/08/12 09:16:32;;;;;;;6.57;0.63;;;;;;;17.16;100.00;99415.13;5015579;28;20035;-82
2023/08/12 09:18:58;;;;;;;8.00;1.15;;;;;;;17.10;100.00;99430.13;5017802;28;20041;-82
2023/08/12 09:21:24;;;;;;;5.53;0.70;;;;;;;17.10;100.00;99422.09;5024334;28;20503;-83
2023/08/12 09:23:50;;;;;;;6.35;0.70;;;;;;;17.20;100.00;99421.66;5008120;28;20033;-83
2023/08/12 09:26:20;;;;;;;4.72;0.90;;;;;;;17.38;100.00;99425.47;5025084;28;20045;-82
2023/08/12 09:28:47;;;;;;;5.38;1.10;;;;;;;17.58;100.00;99428.00;5024530;28;20115;-82
2023/08/12 09:31:26;;;;;;;5.53;0.77;;;;;;;17.72;100.00;99433.28;5005495;28;20030;-83
2023/08/12 09:33:53;;;;;;;8.93;0.73;;;;;;;17.82;100.00;99432.78;5024929;28;20040;-83
2023/08/12 09:36:20;;;;;;;2.42;0.60;;;;;;;17.87;100.00;99427.59;5027967;28;20036;-83
2023/08/12 09:38:47;;;;;;;5.43;0.95;;;;;;;17.83;100.00;99431.75;5024757;28;20037;-83
2023/08/12 09:41:13;;;;;;;7.35;0.80;;;;;;;17.69;100.00;99439.88;5012219;28;20033;-83
2023/08/12 09:43:42;;;;;;;3.58;1.00;;;;;;;17.65;100.00;99443.16;5025921;28;20506;-83
2023/08/12 09:46:13;;;;;;;4.97;0.95;;;;;;;17.56;100.00;99453.31;5011176;28;20059;-83
2023/08/12 09:48:39;;;;;;;4.00;0.63;;;;;;;17.49;100.00;99458.69;5011020;28;20119;-83
2023/08/12 09:51:05;;;;;;;3.35;0.85;;;;;;;17.50;100.00;99448.81;5026264;28;20203;-82
2023/08/12 09:53:32;;;;;;;6.13;0.90;;;;;;;17.49;100.00;99450.66;5015987;28;20743;-81
2023/08/12 09:56:07;;;;;;;6.50;0.90;;;;;;;17.44;100.00;99454.00;5012660;28;20033;-81
2023/08/12 09:58:36;;;;;;;6.93;0.90;;;;;;;17.38;100.00;99446.00;5018684;28;20049;-83
2023/08/12 10:01:07;;;;;;;5.50;0.75;;;;;;;17.38;100.00;99462.84;5007034;28;20056;-83
2023/08/12 10:03:34;;;;;;;4.93;0.90;;;;;;;17.35;100.00;99472.13;5009469;28;20045;-83
2023/08/12 10:06:02;;;;;;;3.10;0.73;;;;;;;17.37;100.00;99466.56;5020358;28;20060;-83
2023/08/12 10:08:29;;;;;;;6.97;0.63;;;;;;;17.46;100.00;99467.13;5027026;28;20116;-84
2023/08/12 10:10:55;;;;;;;5.70;0.82;;;;;;;17.56;100.00;99461.31;5036883;28;20033;-83
2023/08/12 10:13:22;;;;;;;5.30;0.95;;;;;;;17.66;100.00;99455.50;5029220;28;20065;-83
2023/08/12 10:15:49;;;;;;;3.67;0.90;;;;;;;17.75;100.00;99459.56;5018576;28;20044;-83
2023/08/12 10:18:15;;;;;;;5.38;1.23;;;;;;;17.83;100.00;99466.50;5023800;28;20048;-84
2023/08/12 10:20:43;;;;;;;7.45;1.10;;;;;;;17.90;100.00;99467.25;5010863;28;20487;-83
2023/08/12 10:23:13;;;;;;;7.18;1.05;;;;;;;17.97;100.00;99460.00;5024489;28;20435;-82
2023/08/12 10:25:42;;;;;;;6.80;0.70;;;;;;;18.04;100.00;99459.97;5021509;28;20045;-81
2023/08/12 10:28:08;;;;;;;4.47;0.77;;;;;;;18.12;100.00;99463.44;5011154;28;20032;-83
2023/08/12 10:30:35;;;;;;;3.90;0.68;;;;;;;18.24;100.00;99453.66;5029076;28;20037;-83
2023/08/12 10:33:01;;;;;;;4.25;0.85;;;;;;;18.23;100.00;99468.06;5027043;28;20116;-82
2023/08/12 10:35:47;;;;;;;8.50;1.05;;;;;;;18.22;100.00;99469.91;5021398;28;20063;-83
2023/08/12 10:38:20;;;;;;;;;;;;;;;18.03;100.00;99463.66;5019048;28;20025;-83
2023/08/12 10:40:47;;;;;;;6.20;1.10;;;;;;;17.99;100.00;99473.16;5009497;28;19913;-83
2023/08/12 10:43:13;;;;;;;4.53;0.90;;;;;;;17.94;100.00;99464.97;5036102;28;20053;-83
2023/08/12 10:45:52;;;;;;;4.32;1.15;;;;;;;17.87;100.00;99474.91;5010537;28;20029;-83
2023/08/12 10:48:25;;;;;;;4.78;0.60;;;;;;;17.83;100.00;99469.16;5041871;28;20051;-83
2023/08/12 10:50:58;;;;;;;4.05;0.75;;;;;;;17.75;100.00;99472.91;5026226;28;20113;-83
2023/08/12 10:53:32;;;;;;;3.70;0.55;;;;;;;17.73;100.00;99478.47;5014361;28;20049;-83
2023/08/12 10:56:00;;;;;;;7.32;1.27;;;;;;;17.68;100.00;99490.84;4991725;28;20048;-84
2023/08/12 10:58:45;;;;;;;2.85;0.63;;;;;;;17.58;100.00;99478.75;5008610;28;20030;-83
2023/08/12 11:01:19;;;;;;;5.05;0.70;;;;;;;17.59;100.00;99484.94;5017548;28;21377;-84
2023/08/12 11:03:45;;;;;;;6.10;1.08;;;;;;;17.58;100.00;99484.13;5007907;28;20072;-84
2023/08/12 11:06:11;;;;;;;3.72;0.70;;;;;;;17.60;100.00;99482.06;4944437;28;20040;-83
2023/08/12 11:08:46;;;;;;;2.90;0.60;;;;;;;17.54;100.00;99498.94;5021350;28;20448;-83
2023/08/12 11:11:25;;;;;;;5.10;0.90;;;;;;;17.43;100.00;99491.59;5021507;28;20065;-84
2023/08/12 11:13:56;;;;;;;3.78;0.90;;;;;;;17.43;100.00;99495.09;4994504;28;20129;-83
2023/08/12 11:16:35;;;;;;;5.95;0.93;;;;;;;17.54;100.00;99504.28;5025988;28;20037;-84
2023/08/12 11:19:01;;;;;;;6.20;1.27;;;;;;;17.63;100.00;99501.38;5039717;28;20057;-83
2023/08/12 11:21:26;;;;;;;7.40;1.00;;;;;;;17.67;100.00;99500.72;5008340;28;20399;-84
2023/08/12 11:23:55;;;;;;;6.53;1.25;;;;;;;17.76;100.00;99513.84;5026816;28;20021;-84